sensor_id;sensor_type;location;lat;lon;timestamp;temperature;humidity
3542;DHT22;1785;47.388;8.538;2022-09-01T00:02:06;19.60;99.90
3542;DHT22;1785;47.388;8.538;2022-09-01T00:04:34;19.40;99.90
3542;DHT22;1785;47.388;8.538;2022-09-01T00:07:03;19.40;99.90
3542;DHT22;1785;47.388;8.538;2022-09-01T00:09:30;19.40;99.90
3542;DHT22;1785;47.388;8.538;2022-09-01T00:11:57;19.20;99.90
3542;DHT22;1785;47.388;8.538;2022-09-01T00:14:28;19.10;99.90
3542;DHT22;1785;47.388;8.538;2022-09-01T00:16:55;19.00;99.90
3542;DHT22;1785;47.388;8.538;2022-09-01T00:19:22;19.00;99.90
3542;DHT22;1785;47.388;8.538;2022-09-01T00:21:49;19.10;99.90
3542;DHT22;1785;47.388;8.538;2022-09-01T00:24:17;19.30;99.90
3542;DHT22;1785;47.388;8.538;2022-09-01T00:26:45;19.30;99.90
3542;DHT22;1785;47.388;8.538;2022-09-01T00:29:12;19.30;99.90
3542;DHT22;1785;47.388;8.538;2022-09-01T00:31:40;19.50;99.90
3542;DHT22;1785;47.388;8.538;2022-09-01T00:34:07;19.50;99.90
3542;DHT22;1785;47.388;8.538;2022-09-01T00:36:34;19.60;99.90
3542;DHT22;1785;47.388;8.538;2022-09-01T00:39:00;19.70;99.90
3542;DHT22;1785;47.388;8.538;2022-09-01T00:41:29;19.80;99.90
3542;DHT22;1785;47.388;8.538;2022-09-01T00:43:57;19.90;99.90
3542;DHT22;1785;47.388;8.538;2022-09-01T00:46:27;19.50;99.90
3542;DHT22;1785;47.388;8.538;2022-09-01T00:48:57;19.30;99.90
3542;DHT22;1785;47.388;8.538;2022-09-01T00:51:25;19.10;99.90
3542;DHT22;1785;47.388;8.538;2022-09-01T00:53:53;19.10;99.90
3542;DHT22;1785;47.388;8.538;2022-09-01T00:56:21;19.30;99.90
3542;DHT22;1785;47.388;8.538;2022-09-01T00:58:48;19.50;99.90
3542;DHT22;1785;47.388;8.538;2022-09-01T01:01:15;19.30;99.90
3542;DHT22;1785;47.388;8.538;2022-09-01T01:03:43;19.40;99.90
3542;DHT22;1785;47.388;8.538;2022-09-01T01:06:14;19.60;99.90
3542;DHT22;1785;47.388;8.538;2022-09-01T01:08:45;19.70;99.90
3542;DHT22;1785;47.388;8.538;2022-09-01T01:11:17;19.70;99.90
3542;DHT22;1785;47.388;8.538;2022-09-01T01:13:50;19.90;99.90
3542;DHT22;1785;47.388;8.538;2022-09-01T01:16:18;19.60;99.90
3542;DHT22;1785;47.388;8.538;2022-09-01T01:18:45;19.20;99.90
3542;DHT22;1785;47.388;8.538;2022-09-01T01:21:16;19.10;99.90
3542;DHT22;1785;47.388;8.538;2022-09-01T01:24:07;18.60;99.90
3542;DHT22;1785;47.388;8.538;2022-09-01T01:26:35;18.50;99.90
3542;DHT22;1785;47.388;8.538;2022-09-01T01:29:02;18.80;99.90
3542;DHT22;1785;47.388;8.538;2022-09-01T01:31:32;19.00;99.90
3542;DHT22;1785;47.388;8.538;2022-09-01T01:33:59;19.10;99.90
3542;DHT22;1785;47.388;8.538;2022-09-01T01:36:30;19.30;99.90
3542;DHT22;1785;47.388;8.538;2022-09-01T01:39:01;19.10;99.90
3542;DHT22;1785;47.388;8.538;2022-09-01T01:41:29;18.90;99.90
3542;DHT22;1785;47.388;8.538;2022-09-01T01:43:58;18.70;99.90
3542;DHT22;1785;47.388;8.538;2022-09-01T01:46:29;18.40;99.90
3542;DHT22;1785;47.388;8.538;2022-09-01T01:48:56;18.30;99.90
3542;DHT22;1785;47.388;8.538;2022-09-01T01:51:22;18.40;99.90
3542;DHT22;1785;47.388;8.538;2022-09-01T01:53:52;18.40;99.90
3542;DHT22;1785;47.388;8.538;2022-09-01T01:56:20;18.60;99.90
3542;DHT22;1785;47.388;8.538;2022-09-01T01:58:50;18.60;99.90
3542;DHT22;1785;47.388;8.538;2022-09-01T02:01:21;18.60;99.90
3542;DHT22;1785;47.388;8.538;2022-09-01T02:03:50;18.60;99.90
3542;DHT22;1785;47.388;8.538;2022-09-01T02:06:20;18.80;99.90
3542;DHT22;1785;47.388;8.538;2022-09-01T02:08:50;19.10;99.90
3542;DHT22;1785;47.388;8.538;2022-09-01T02:11:17;19.10;99.90
3542;DHT22;1785;47.388;8.538;2022-09-01T02:13:44;19.10;99.90
3542;DHT22;1785;47.388;8.538;2022-09-01T02:16:12;18.70;99.90
3542;DHT22;1785;47.388;8.538;2022-09-01T02:18:41;18.70;99.90
3542;DHT22;1785;47.388;8.538;2022-09-01T02:21:10;18.80;99.90
3542;DHT22;1785;47.388;8.538;2022-09-01T02:23:40;18.80;99.90
3542;DHT22;1785;47.388;8.538;2022-09-01T02:26:08;19.00;99.90
3542;DHT22;1785;47.388;8.538;2022-09-01T02:28:37;19.10;99.90
3542;DHT22;1785;47.388;8.538;2022-09-01T02:31:07;18.80;99.90
3542;DHT22;1785;47.388;8.538;2022-09-01T02:33:34;18.60;99.90
3542;DHT22;1785;47.388;8.538;2022-09-01T02:36:05;18.20;99.90
3542;DHT22;1785;47.388;8.538;2022-09-01T02:38:32;18.00;99.90
3542;DHT22;1785;47.388;8.538;2022-09-01T02:40:59;17.80;99.90
3542;DHT22;1785;47.388;8.538;2022-09-01T02:43:28;17.70;99.90
3542;DHT22;1785;47.388;8.538;2022-09-01T02:45:57;17.50;99.90
3542;DHT22;1785;47.388;8.538;2022-09-01T02:48:26;17.50;99.90
3542;DHT22;1785;47.388;8.538;2022-09-01T02:50:58;17.60;99.90
3542;DHT22;1785;47.388;8.538;2022-09-01T02:53:27;17.70;99.90
3542;DHT22;1785;47.388;8.538;2022-09-01T02:55:54;17.60;99.90
3542;DHT22;1785;47.388;8.538;2022-09-01T02:58:24;17.70;99.90
3542;DHT22;1785;47.388;8.538;2022-09-01T03:00:52;17.70;99.90
3542;DHT22;1785;47.388;8.538;2022-09-01T03:03:19;17.90;99.90
3542;DHT22;1785;47.388;8.538;2022-09-01T03:05:46;18.10;99.90
3542;DHT22;1785;47.388;8.538;2022-09-01T03:08:14;18.30;99.90
3542;DHT22;1785;47.388;8.538;2022-09-01T03:10:43;18.40;99.90
3542;DHT22;1785;47.388;8.538;2022-09-01T03:13:13;18.70;99.90
3542;DHT22;1785;47.388;8.538;2022-09-01T03:15:41;18.70;99.90
3542;DHT22;1785;47.388;8.538;2022-09-01T03:18:09;18.80;99.90
3542;DHT22;1785;47.388;8.538;2022-09-01T03:20:38;18.80;99.90
3542;DHT22;1785;47.388;8.538;2022-09-01T03:23:08;18.90;99.90
3542;DHT22;1785;47.388;8.538;2022-09-01T03:25:35;18.60;99.90
3542;DHT22;1785;47.388;8.538;2022-09-01T03:28:03;18.50;99.90
3542;DHT22;1785;47.388;8.538;2022-09-01T03:30:32;18.70;99.90
3542;DHT22;1785;47.388;8.538;2022-09-01T03:33:00;18.80;99.90
3542;DHT22;1785;47.388;8.538;2022-09-01T03:35:28;19.00;99.90
3542;DHT22;1785;47.388;8.538;2022-09-01T03:37:57;19.20;99.90
3542;DHT22;1785;47.388;8.538;2022-09-01T03:40:25;19.10;99.90
3542;DHT22;1785;47.388;8.538;2022-09-01T03:42:52;19.20;99.90
3542;DHT22;1785;47.388;8.538;2022-09-01T03:45:19;19.10;99.90
3542;DHT22;1785;47.388;8.538;2022-09-01T03:47:46;19.10;99.90
3542;DHT22;1785;47.388;8.538;2022-09-01T03:50:15;18.50;99.90
3542;DHT22;1785;47.388;8.538;2022-09-01T03:52:45;18.50;99.90
3542;DHT22;1785;47.388;8.538;2022-09-01T03:55:11;18.40;99.90
3542;DHT22;1785;47.388;8.538;2022-09-01T03:57:38;18.50;99.90
3542;DHT22;1785;47.388;8.538;2022-09-01T04:00:07;18.50;99.90
3542;DHT22;1785;47.388;8.538;2022-09-01T04:02:39;18.60;99.90
3542;DHT22;1785;47.388;8.538;2022-09-01T04:05:07;18.70;99.90
3542;DHT22;1785;47.388;8.538;2022-09-01T04:07:34;18.70;99.90
3542;DHT22;1785;47.388;8.538;2022-09-01T04:10:00;18.80;99.90
3542;DHT22;1785;47.388;8.538;2022-09-01T04:12:27;18.90;99.90
3542;DHT22;1785;47.388;8.538;2022-09-01T04:14:54;18.90;99.90
3542;DHT22;1785;47.388;8.538;2022-09-01T04:17:20;19.10;99.90
3542;DHT22;1785;47.388;8.538;2022-09-01T04:20:06;18.90;99.90
3542;DHT22;1785;47.388;8.538;2022-09-01T04:22:34;18.80;99.90
3542;DHT22;1785;47.388;8.538;2022-09-01T04:25:04;18.70;99.90
3542;DHT22;1785;47.388;8.538;2022-09-01T04:27:30;18.80;99.90
3542;DHT22;1785;47.388;8.538;2022-09-01T04:29:58;18.70;99.90
3542;DHT22;1785;47.388;8.538;2022-09-01T04:32:26;18.70;99.90
3542;DHT22;1785;47.388;8.538;2022-09-01T04:34:53;18.60;99.90
3542;DHT22;1785;47.388;8.538;2022-09-01T04:37:21;18.60;99.90
3542;DHT22;1785;47.388;8.538;2022-09-01T04:39:49;18.70;99.90
3542;DHT22;1785;47.388;8.538;2022-09-01T04:42:16;18.70;99.90
3542;DHT22;1785;47.388;8.538;2022-09-01T04:44:44;18.40;99.90
3542;DHT22;1785;47.388;8.538;2022-09-01T04:47:11;18.30;99.90
3542;DHT22;1785;47.388;8.538;2022-09-01T04:49:44;18.30;99.90
3542;DHT22;1785;47.388;8.538;2022-09-01T04:52:12;18.40;99.90
3542;DHT22;1785;47.388;8.538;2022-09-01T04:54:39;18.50;99.90
3542;DHT22;1785;47.388;8.538;2022-09-01T04:57:07;18.40;99.90
3542;DHT22;1785;47.388;8.538;2022-09-01T04:59:34;18.50;99.90
3542;DHT22;1785;47.388;8.538;2022-09-01T05:02:01;18.60;99.90
3542;DHT22;1785;47.388;8.538;2022-09-01T05:04:32;18.70;99.90
3542;DHT22;1785;47.388;8.538;2022-09-01T05:07:00;19.00;99.90
3542;DHT22;1785;47.388;8.538;2022-09-01T05:09:27;18.90;99.90
3542;DHT22;1785;47.388;8.538;2022-09-01T05:11:56;18.80;99.90
3542;DHT22;1785;47.388;8.538;2022-09-01T05:14:23;18.60;99.90
3542;DHT22;1785;47.388;8.538;2022-09-01T05:16:51;18.80;99.90
3542;DHT22;1785;47.388;8.538;2022-09-01T05:19:21;18.90;99.90
3542;DHT22;1785;47.388;8.538;2022-09-01T05:21:50;19.00;99.90
3542;DHT22;1785;47.388;8.538;2022-09-01T05:24:19;18.80;99.90
3542;DHT22;1785;47.388;8.538;2022-09-01T05:26:47;18.80;99.90
3542;DHT22;1785;47.388;8.538;2022-09-01T05:29:17;18.90;99.90
3542;DHT22;1785;47.388;8.538;2022-09-01T05:31:47;19.00;99.90
3542;DHT22;1785;47.388;8.538;2022-09-01T05:34:15;18.90;99.90
3542;DHT22;1785;47.388;8.538;2022-09-01T05:36:45;18.90;99.90
3542;DHT22;1785;47.388;8.538;2022-09-01T05:39:15;19.00;99.90
3542;DHT22;1785;47.388;8.538;2022-09-01T05:41:42;18.90;99.90
3542;DHT22;1785;47.388;8.538;2022-09-01T05:44:11;19.00;99.90
3542;DHT22;1785;47.388;8.538;2022-09-01T05:46:40;19.00;99.90
3542;DHT22;1785;47.388;8.538;2022-09-01T05:49:10;19.10;99.90
3542;DHT22;1785;47.388;8.538;2022-09-01T05:51:41;19.10;99.90
3542;DHT22;1785;47.388;8.538;2022-09-01T05:54:09;19.20;99.90
3542;DHT22;1785;47.388;8.538;2022-09-01T05:56:37;19.30;99.90
3542;DHT22;1785;47.388;8.538;2022-09-01T05:59:05;19.40;99.90
3542;DHT22;1785;47.388;8.538;2022-09-01T06:01:33;19.60;99.90
3542;DHT22;1785;47.388;8.538;2022-09-01T06:04:04;19.70;99.90
3542;DHT22;1785;47.388;8.538;2022-09-01T06:06:35;19.80;99.90
3542;DHT22;1785;47.388;8.538;2022-09-01T06:09:05;20.00;99.90
3542;DHT22;1785;47.388;8.538;2022-09-01T06:11:34;19.90;99.90
3542;DHT22;1785;47.388;8.538;2022-09-01T06:14:01;19.90;99.90
3542;DHT22;1785;47.388;8.538;2022-09-01T06:16:29;19.90;99.90
3542;DHT22;1785;47.388;8.538;2022-09-01T06:18:56;20.10;99.90
3542;DHT22;1785;47.388;8.538;2022-09-01T06:21:25;20.10;99.90
3542;DHT22;1785;47.388;8.538;2022-09-01T06:23:54;20.20;99.90
3542;DHT22;1785;47.388;8.538;2022-09-01T06:26:23;20.10;99.90
3542;DHT22;1785;47.388;8.538;2022-09-01T06:28:55;20.10;99.90
3542;DHT22;1785;47.388;8.538;2022-09-01T06:31:22;20.10;99.90
3542;DHT22;1785;47.388;8.538;2022-09-01T06:33:50;20.10;99.90
3542;DHT22;1785;47.388;8.538;2022-09-01T06:36:19;20.10;99.90
3542;DHT22;1785;47.388;8.538;2022-09-01T06:38:48;20.30;99.90
3542;DHT22;1785;47.388;8.538;2022-09-01T06:41:16;20.40;99.90
3542;DHT22;1785;47.388;8.538;2022-09-01T06:43:45;20.40;99.90
3542;DHT22;1785;47.388;8.538;2022-09-01T06:46:11;20.20;99.90
3542;DHT22;1785;47.388;8.538;2022-09-01T06:48:37;20.00;99.90
3542;DHT22;1785;47.388;8.538;2022-09-01T06:51:07;19.90;99.90
3542;DHT22;1785;47.388;8.538;2022-09-01T06:53:35;20.00;99.90
3542;DHT22;1785;47.388;8.538;2022-09-01T06:56:02;20.00;99.90
3542;DHT22;1785;47.388;8.538;2022-09-01T06:58:29;20.00;99.90
3542;DHT22;1785;47.388;8.538;2022-09-01T07:00:56;20.10;99.90
3542;DHT22;1785;47.388;8.538;2022-09-01T07:03:25;20.20;99.90
3542;DHT22;1785;47.388;8.538;2022-09-01T07:05:52;20.30;99.90
3542;DHT22;1785;47.388;8.538;2022-09-01T07:08:19;20.30;99.90
3542;DHT22;1785;47.388;8.538;2022-09-01T07:10:49;20.30;99.90
3542;DHT22;1785;47.388;8.538;2022-09-01T07:13:17;20.20;99.90
3542;DHT22;1785;47.388;8.538;2022-09-01T07:15:48;20.10;99.90
3542;DHT22;1785;47.388;8.538;2022-09-01T07:18:15;20.20;99.90
3542;DHT22;1785;47.388;8.538;2022-09-01T07:20:44;20.10;99.90
3542;DHT22;1785;47.388;8.538;2022-09-01T07:23:14;20.00;99.90
3542;DHT22;1785;47.388;8.538;2022-09-01T07:25:44;19.80;99.90
3542;DHT22;1785;47.388;8.538;2022-09-01T07:28:13;19.90;99.90
3542;DHT22;1785;47.388;8.538;2022-09-01T07:30:42;20.00;99.90
3542;DHT22;1785;47.388;8.538;2022-09-01T07:33:10;20.10;99.90
3542;DHT22;1785;47.388;8.538;2022-09-01T07:35:39;20.10;99.90
3542;DHT22;1785;47.388;8.538;2022-09-01T07:38:06;20.00;99.90
3542;DHT22;1785;47.388;8.538;2022-09-01T07:40:35;19.80;99.90
3542;DHT22;1785;47.388;8.538;2022-09-01T07:43:06;19.90;99.90
3542;DHT22;1785;47.388;8.538;2022-09-01T07:45:36;20.00;99.90
3542;DHT22;1785;47.388;8.538;2022-09-01T07:48:05;20.10;99.90
3542;DHT22;1785;47.388;8.538;2022-09-01T07:50:34;20.20;99.90
3542;DHT22;1785;47.388;8.538;2022-09-01T07:53:00;20.20;99.90
3542;DHT22;1785;47.388;8.538;2022-09-01T07:55:27;20.20;99.90
3542;DHT22;1785;47.388;8.538;2022-09-01T07:57:53;20.30;99.90
3542;DHT22;1785;47.388;8.538;2022-09-01T08:00:19;20.20;99.90
3542;DHT22;1785;47.388;8.538;2022-09-01T08:02:47;20.20;99.90
3542;DHT22;1785;47.388;8.538;2022-09-01T08:05:17;20.40;99.90
3542;DHT22;1785;47.388;8.538;2022-09-01T08:07:47;20.10;99.90
3542;DHT22;1785;47.388;8.538;2022-09-01T08:10:14;19.80;99.90
3542;DHT22;1785;47.388;8.538;2022-09-01T08:12:41;19.60;99.90
3542;DHT22;1785;47.388;8.538;2022-09-01T08:15:09;19.60;99.90
3542;DHT22;1785;47.388;8.538;2022-09-01T08:17:38;19.70;99.90
3542;DHT22;1785;47.388;8.538;2022-09-01T08:20:06;19.80;99.90
3542;DHT22;1785;47.388;8.538;2022-09-01T08:22:35;19.90;99.90
3542;DHT22;1785;47.388;8.538;2022-09-01T08:25:04;20.00;99.90
3542;DHT22;1785;47.388;8.538;2022-09-01T08:27:31;20.00;99.90
3542;DHT22;1785;47.388;8.538;2022-09-01T08:29:58;20.00;99.90
3542;DHT22;1785;47.388;8.538;2022-09-01T08:32:25;20.20;99.90
3542;DHT22;1785;47.388;8.538;2022-09-01T08:34:52;20.20;99.90
3542;DHT22;1785;47.388;8.538;2022-09-01T08:37:19;19.90;99.90
3542;DHT22;1785;47.388;8.538;2022-09-01T08:39:46;19.70;99.90
3542;DHT22;1785;47.388;8.538;2022-09-01T08:42:19;19.70;99.90
3542;DHT22;1785;47.388;8.538;2022-09-01T08:44:55;19.60;99.90
3542;DHT22;1785;47.388;8.538;2022-09-01T08:47:23;19.90;99.90
3542;DHT22;1785;47.388;8.538;2022-09-01T08:49:50;19.80;99.90
3542;DHT22;1785;47.388;8.538;2022-09-01T08:52:23;19.80;99.90
3542;DHT22;1785;47.388;8.538;2022-09-01T08:54:56;20.10;99.90
3542;DHT22;1785;47.388;8.538;2022-09-01T08:57:31;20.20;99.90
3542;DHT22;1785;47.388;8.538;2022-09-01T08:59:59;20.10;99.90
3542;DHT22;1785;47.388;8.538;2022-09-01T09:02:44;20.10;99.90
3542;DHT22;1785;47.388;8.538;2022-09-01T09:05:34;20.40;99.90
3542;DHT22;1785;47.388;8.538;2022-09-01T09:08:29;20.50;99.90
3542;DHT22;1785;47.388;8.538;2022-09-01T09:11:04;20.30;99.90
3542;DHT22;1785;47.388;8.538;2022-09-01T09:13:42;20.30;99.90
3542;DHT22;1785;47.388;8.538;2022-09-01T09:16:17;20.60;99.90
3542;DHT22;1785;47.388;8.538;2022-09-01T09:18:49;20.60;99.90
3542;DHT22;1785;47.388;8.538;2022-09-01T09:21:19;20.40;99.90
3542;DHT22;1785;47.388;8.538;2022-09-01T09:23:52;20.60;99.90
3542;DHT22;1785;47.388;8.538;2022-09-01T09:26:21;20.80;99.90
3542;DHT22;1785;47.388;8.538;2022-09-01T09:28:47;20.90;99.90
3542;DHT22;1785;47.388;8.538;2022-09-01T09:31:26;20.90;99.90
3542;DHT22;1785;47.388;8.538;2022-09-01T09:33:53;20.80;99.90
3542;DHT22;1785;47.388;8.538;2022-09-01T09:36:22;20.80;99.90
3542;DHT22;1785;47.388;8.538;2022-09-01T09:39:09;20.90;99.90
3542;DHT22;1785;47.388;8.538;2022-09-01T09:41:38;21.10;99.90
3542;DHT22;1785;47.388;8.538;2022-09-01T09:44:16;21.20;99.90
3542;DHT22;1785;47.388;8.538;2022-09-01T09:46:46;21.10;99.90
3542;DHT22;1785;47.388;8.538;2022-09-01T09:49:18;21.20;99.90
3542;DHT22;1785;47.388;8.538;2022-09-01T09:51:48;21.30;99.90
3542;DHT22;1785;47.388;8.538;2022-09-01T09:54:20;21.40;99.90
3542;DHT22;1785;47.388;8.538;2022-09-01T09:56:49;21.60;99.90
3542;DHT22;1785;47.388;8.538;2022-09-01T09:59:30;21.50;99.90
3542;DHT22;1785;47.388;8.538;2022-09-01T10:01:58;21.60;99.90
3542;DHT22;1785;47.388;8.538;2022-09-01T10:04:35;21.70;99.90
3542;DHT22;1785;47.388;8.538;2022-09-01T10:07:25;21.90;99.90
3542;DHT22;1785;47.388;8.538;2022-09-01T10:09:55;21.30;99.90
3542;DHT22;1785;47.388;8.538;2022-09-01T10:12:24;21.30;99.90
3542;DHT22;1785;47.388;8.538;2022-09-01T10:14:53;21.40;99.90
3542;DHT22;1785;47.388;8.538;2022-09-01T10:17:27;21.60;99.90
3542;DHT22;1785;47.388;8.538;2022-09-01T10:19:57;21.80;99.90
3542;DHT22;1785;47.388;8.538;2022-09-01T10:22:27;21.80;99.90
3542;DHT22;1785;47.388;8.538;2022-09-01T10:24:54;21.70;99.90
3542;DHT22;1785;47.388;8.538;2022-09-01T10:27:24;21.60;99.90
3542;DHT22;1785;47.388;8.538;2022-09-01T10:29:56;21.40;99.90
3542;DHT22;1785;47.388;8.538;2022-09-01T10:32:28;21.50;99.90
3542;DHT22;1785;47.388;8.538;2022-09-01T10:34:56;21.70;99.90
3542;DHT22;1785;47.388;8.538;2022-09-01T10:37:24;21.60;99.90
3542;DHT22;1785;47.388;8.538;2022-09-01T10:40:16;21.60;99.90
3542;DHT22;1785;47.388;8.538;2022-09-01T10:42:45;21.60;99.90
3542;DHT22;1785;47.388;8.538;2022-09-01T10:45:19;21.70;99.90
3542;DHT22;1785;47.388;8.538;2022-09-01T10:47:55;21.80;99.90
3542;DHT22;1785;47.388;8.538;2022-09-01T10:50:28;22.00;99.90
3542;DHT22;1785;47.388;8.538;2022-09-01T10:53:04;22.10;99.90
3542;DHT22;1785;47.388;8.538;2022-09-01T10:55:37;22.00;99.90
3542;DHT22;1785;47.388;8.538;2022-09-01T10:58:28;21.90;99.90
3542;DHT22;1785;47.388;8.538;2022-09-01T11:00:56;22.00;99.90
3542;DHT22;1785;47.388;8.538;2022-09-01T11:03:58;22.20;99.90
3542;DHT22;1785;47.388;8.538;2022-09-01T11:06:43;22.10;99.90
3542;DHT22;1785;47.388;8.538;2022-09-01T11:09:18;22.30;99.90
3542;DHT22;1785;47.388;8.538;2022-09-01T11:11:50;22.30;99.90
3542;DHT22;1785;47.388;8.538;2022-09-01T11:14:24;22.30;99.90
3542;DHT22;1785;47.388;8.538;2022-09-01T11:17:10;22.00;99.90
3542;DHT22;1785;47.388;8.538;2022-09-01T11:19:41;22.20;99.90
3542;DHT22;1785;47.388;8.538;2022-09-01T11:22:29;22.10;99.90
3542;DHT22;1785;47.388;8.538;2022-09-01T11:30:55;22.50;99.90
3542;DHT22;1785;47.388;8.538;2022-09-01T11:33:32;22.60;99.90
3542;DHT22;1785;47.388;8.538;2022-09-01T11:36:01;22.60;99.90
3542;DHT22;1785;47.388;8.538;2022-09-01T11:38:37;22.70;99.90
3542;DHT22;1785;47.388;8.538;2022-09-01T11:41:23;22.80;99.90
3542;DHT22;1785;47.388;8.538;2022-09-01T11:43:52;23.00;99.90
3542;DHT22;1785;47.388;8.538;2022-09-01T11:46:25;22.90;99.90
3542;DHT22;1785;47.388;8.538;2022-09-01T11:48:53;22.70;99.90
3542;DHT22;1785;47.388;8.538;2022-09-01T11:51:21;22.70;99.90
3542;DHT22;1785;47.388;8.538;2022-09-01T11:53:48;22.80;99.90
3542;DHT22;1785;47.388;8.538;2022-09-01T11:56:18;22.90;99.90
3542;DHT22;1785;47.388;8.538;2022-09-01T11:58:45;22.90;99.90
3542;DHT22;1785;47.388;8.538;2022-09-01T12:01:15;23.00;99.90
3542;DHT22;1785;47.388;8.538;2022-09-01T12:03:44;23.10;99.90
3542;DHT22;1785;47.388;8.538;2022-09-01T12:06:22;23.10;99.90
3542;DHT22;1785;47.388;8.538;2022-09-01T12:08:55;23.30;99.90
3542;DHT22;1785;47.388;8.538;2022-09-01T12:11:24;23.30;99.90
3542;DHT22;1785;47.388;8.538;2022-09-01T12:13:58;23.60;99.90
3542;DHT22;1785;47.388;8.538;2022-09-01T12:16:26;23.80;99.90
3542;DHT22;1785;47.388;8.538;2022-09-01T12:18:56;23.60;99.90
3542;DHT22;1785;47.388;8.538;2022-09-01T12:21:26;23.80;99.90
3542;DHT22;1785;47.388;8.538;2022-09-01T12:23:53;23.90;99.90
3542;DHT22;1785;47.388;8.538;2022-09-01T12:26:23;24.20;99.90
3542;DHT22;1785;47.388;8.538;2022-09-01T12:28:51;24.30;99.90
3542;DHT22;1785;47.388;8.538;2022-09-01T12:31:19;24.30;99.90
3542;DHT22;1785;47.388;8.538;2022-09-01T12:33:47;24.40;99.90
3542;DHT22;1785;47.388;8.538;2022-09-01T12:36:24;24.60;99.90
3542;DHT22;1785;47.388;8.538;2022-09-01T12:38:52;24.70;99.90
3542;DHT22;1785;47.388;8.538;2022-09-01T12:41:32;24.60;99.90
3542;DHT22;1785;47.388;8.538;2022-09-01T12:44:30;24.50;99.90
3542;DHT22;1785;47.388;8.538;2022-09-01T12:46:58;24.10;99.90
3542;DHT22;1785;47.388;8.538;2022-09-01T12:49:34;24.10;99.90
3542;DHT22;1785;47.388;8.538;2022-09-01T12:52:14;24.20;99.90
3542;DHT22;1785;47.388;8.538;2022-09-01T12:54:44;23.80;99.90
3542;DHT22;1785;47.388;8.538;2022-09-01T12:57:25;24.10;99.90
3542;DHT22;1785;47.388;8.538;2022-09-01T13:00:12;24.30;99.90
3542;DHT22;1785;47.388;8.538;2022-09-01T13:02:41;24.40;99.90
3542;DHT22;1785;47.388;8.538;2022-09-01T13:05:33;24.60;99.90
3542;DHT22;1785;47.388;8.538;2022-09-01T13:08:05;24.70;99.90
3542;DHT22;1785;47.388;8.538;2022-09-01T13:10:34;24.50;99.90
3542;DHT22;1785;47.388;8.538;2022-09-01T13:13:04;24.20;99.90
3542;DHT22;1785;47.388;8.538;2022-09-01T13:15:31;24.10;99.90
3542;DHT22;1785;47.388;8.538;2022-09-01T13:17:57;24.30;99.90
3542;DHT22;1785;47.388;8.538;2022-09-01T13:20:24;24.10;99.90
3542;DHT22;1785;47.388;8.538;2022-09-01T13:22:51;24.20;99.90
3542;DHT22;1785;47.388;8.538;2022-09-01T13:25:21;24.20;99.90
3542;DHT22;1785;47.388;8.538;2022-09-01T13:27:48;24.10;99.90
3542;DHT22;1785;47.388;8.538;2022-09-01T13:30:18;24.10;99.90
3542;DHT22;1785;47.388;8.538;2022-09-01T13:32:46;24.10;99.90
3542;DHT22;1785;47.388;8.538;2022-09-01T13:35:14;24.10;99.90
3542;DHT22;1785;47.388;8.538;2022-09-01T13:37:41;24.20;99.90
3542;DHT22;1785;47.388;8.538;2022-09-01T13:40:09;24.30;99.90
3542;DHT22;1785;47.388;8.538;2022-09-01T13:42:41;24.50;99.90
3542;DHT22;1785;47.388;8.538;2022-09-01T13:45:09;24.50;99.90
3542;DHT22;1785;47.388;8.538;2022-09-01T13:47:38;24.50;99.90
3542;DHT22;1785;47.388;8.538;2022-09-01T13:50:05;24.60;99.90
3542;DHT22;1785;47.388;8.538;2022-09-01T13:52:32;24.30;99.90
3542;DHT22;1785;47.388;8.538;2022-09-01T13:54:59;24.20;99.90
3542;DHT22;1785;47.388;8.538;2022-09-01T13:57:26;24.20;99.90
3542;DHT22;1785;47.388;8.538;2022-09-01T13:59:56;24.00;99.90
3542;DHT22;1785;47.388;8.538;2022-09-01T14:02:23;24.00;99.90
3542;DHT22;1785;47.388;8.538;2022-09-01T14:04:52;24.10;99.90
3542;DHT22;1785;47.388;8.538;2022-09-01T14:07:18;24.20;99.90
3542;DHT22;1785;47.388;8.538;2022-09-01T14:09:47;24.50;99.90
3542;DHT22;1785;47.388;8.538;2022-09-01T14:12:18;24.70;99.90
3542;DHT22;1785;47.388;8.538;2022-09-01T14:14:45;24.90;99.90
3542;DHT22;1785;47.388;8.538;2022-09-01T14:17:12;25.20;99.90
3542;DHT22;1785;47.388;8.538;2022-09-01T14:19:38;25.40;99.90
3542;DHT22;1785;47.388;8.538;2022-09-01T14:22:06;25.70;99.90
3542;DHT22;1785;47.388;8.538;2022-09-01T14:24:35;25.40;99.90
3542;DHT22;1785;47.388;8.538;2022-09-01T14:29:39;25.60;99.90
3542;DHT22;1785;47.388;8.538;2022-09-01T14:32:05;25.30;99.90
3542;DHT22;1785;47.388;8.538;2022-09-01T14:34:33;25.20;99.90
3542;DHT22;1785;47.388;8.538;2022-09-01T14:37:00;25.20;99.90
3542;DHT22;1785;47.388;8.538;2022-09-01T14:39:29;25.30;99.90
3542;DHT22;1785;47.388;8.538;2022-09-01T14:41:57;25.20;99.90
3542;DHT22;1785;47.388;8.538;2022-09-01T14:44:27;25.20;99.90
3542;DHT22;1785;47.388;8.538;2022-09-01T14:46:54;25.60;99.90
3542;DHT22;1785;47.388;8.538;2022-09-01T14:49:20;26.10;99.90
3542;DHT22;1785;47.388;8.538;2022-09-01T14:51:48;26.50;99.90
3542;DHT22;1785;47.388;8.538;2022-09-01T14:54:14;26.60;99.90
3542;DHT22;1785;47.388;8.538;2022-09-01T14:56:42;26.80;99.90
3542;DHT22;1785;47.388;8.538;2022-09-01T14:59:10;27.00;99.90
3542;DHT22;1785;47.388;8.538;2022-09-01T15:01:36;26.80;99.90
3542;DHT22;1785;47.388;8.538;2022-09-01T15:04:04;26.60;99.90
3542;DHT22;1785;47.388;8.538;2022-09-01T15:06:30;26.60;99.90
3542;DHT22;1785;47.388;8.538;2022-09-01T15:46:35;27.90;98.20
3542;DHT22;1785;47.388;8.538;2022-09-01T15:49:05;27.70;98.20
3542;DHT22;1785;47.388;8.538;2022-09-01T15:51:34;27.90;97.50
3542;DHT22;1785;47.388;8.538;2022-09-01T15:54:04;27.80;97.50
3542;DHT22;1785;47.388;8.538;2022-09-01T15:56:31;27.80;97.10
3542;DHT22;1785;47.388;8.538;2022-09-01T15:58:58;27.50;97.40
3542;DHT22;1785;47.388;8.538;2022-09-01T16:01:27;27.20;97.70
3542;DHT22;1785;47.388;8.538;2022-09-01T16:03:55;27.10;98.10
3542;DHT22;1785;47.388;8.538;2022-09-01T16:06:22;27.50;97.40
3542;DHT22;1785;47.388;8.538;2022-09-01T16:08:50;27.10;98.40
3542;DHT22;1785;47.388;8.538;2022-09-01T16:11:20;27.10;99.00
3542;DHT22;1785;47.388;8.538;2022-09-01T16:13:49;27.40;97.90
3542;DHT22;1785;47.388;8.538;2022-09-01T16:16:30;27.40;98.00
3542;DHT22;1785;47.388;8.538;2022-09-01T16:19:04;27.40;97.80
3542;DHT22;1785;47.388;8.538;2022-09-01T16:21:44;27.20;97.90
3542;DHT22;1785;47.388;8.538;2022-09-01T16:24:13;26.70;98.50
3542;DHT22;1785;47.388;8.538;2022-09-01T16:26:40;26.60;98.70
3542;DHT22;1785;47.388;8.538;2022-09-01T16:29:16;26.40;99.00
3542;DHT22;1785;47.388;8.538;2022-09-01T16:31:50;26.30;99.30
3542;DHT22;1785;47.388;8.538;2022-09-01T16:34:20;26.50;99.40
3542;DHT22;1785;47.388;8.538;2022-09-01T16:36:59;26.90;98.90
3542;DHT22;1785;47.388;8.538;2022-09-01T16:39:33;26.90;99.00
3542;DHT22;1785;47.388;8.538;2022-09-01T16:42:12;27.20;98.50
3542;DHT22;1785;47.388;8.538;2022-09-01T16:44:57;27.40;97.60
3542;DHT22;1785;47.388;8.538;2022-09-01T16:47:36;26.90;97.40
3542;DHT22;1785;47.388;8.538;2022-09-01T16:50:13;26.60;98.00
3542;DHT22;1785;47.388;8.538;2022-09-01T16:52:59;26.60;98.10
3542;DHT22;1785;47.388;8.538;2022-09-01T16:55:35;26.80;98.10
3542;DHT22;1785;47.388;8.538;2022-09-01T16:58:12;26.90;97.40
3542;DHT22;1785;47.388;8.538;2022-09-01T17:00:51;26.90;97.50
3542;DHT22;1785;47.388;8.538;2022-09-01T17:03:24;27.00;97.30
3542;DHT22;1785;47.388;8.538;2022-09-01T17:05:55;27.30;97.10
3542;DHT22;1785;47.388;8.538;2022-09-01T17:08:27;27.20;97.20